AUS weather

CLOSED Austin Robert Mueller Municipal
Texas, United States

Public forecast

Using degrees Fahrenheit for public forecast. Weather courtesy of forecast.io.

Closest aviation weather report (METAR) to Austin Robert Mueller Municipal

Closest report is Austin Bergstrom International Airport, 6.4 nm (11.9 km) SSE. Retrieved 2020/02/19 00:53 UTC (13 minutes ago):

KAUS 190053Z 36013KT 10SM OVC021 12/07 A3014 RMK AO2 RAE14 SLP202 P0000 T01170067

Closest aviation forecast (TAF) to Austin Robert Mueller Municipal

Closest forecast is Austin Bergstrom International Airport, 6.4 nm (11.9 km) SSE. Retrieved 2020-02-19 00:36 UTC (30 minutes ago):

TAF KAUS 182334Z 1900/2006 35015KT P6SM VCSH OVC016 TEMPO 1900/1904 02008KT -SHRA OVC015 FM190500 01015KT 6SM BR OVC007 FM191400 01010KT 2SM -DZ BR OVC003